sensor_id;sensor_type;location;lat;lon;timestamp;P1;durP1;ratioP1;P2;durP2;ratioP2
74660;SDS011;63191;39.566;2.654;2022-12-24T00:00:32;17.90;;;5.40;;
74660;SDS011;63191;39.566;2.654;2022-12-24T00:02:59;14.10;;;5.10;;
74660;SDS011;63191;39.566;2.654;2022-12-24T00:05:25;16.60;;;5.30;;
74660;SDS011;63191;39.566;2.654;2022-12-24T00:07:52;16.50;;;5.10;;
74660;SDS011;63191;39.566;2.654;2022-12-24T00:10:18;13.30;;;5.10;;
74660;SDS011;63191;39.566;2.654;2022-12-24T00:12:44;19.10;;;7.20;;
74660;SDS011;63191;39.566;2.654;2022-12-24T00:15:10;14.10;;;5.40;;
74660;SDS011;63191;39.566;2.654;2022-12-24T00:17:36;22.60;;;7.00;;
74660;SDS011;63191;39.566;2.654;2022-12-24T00:20:02;17.70;;;5.90;;
74660;SDS011;63191;39.566;2.654;2022-12-24T00:22:29;16.00;;;5.90;;
74660;SDS011;63191;39.566;2.654;2022-12-24T00:24:55;13.80;;;5.60;;
74660;SDS011;63191;39.566;2.654;2022-12-24T00:27:20;13.90;;;5.40;;
74660;SDS011;63191;39.566;2.654;2022-12-24T00:29:46;16.30;;;5.30;;
74660;SDS011;63191;39.566;2.654;2022-12-24T00:32:12;15.80;;;4.70;;
74660;SDS011;63191;39.566;2.654;2022-12-24T00:34:38;12.30;;;4.60;;
74660;SDS011;63191;39.566;2.654;2022-12-24T00:37:06;14.70;;;5.60;;
74660;SDS011;63191;39.566;2.654;2022-12-24T00:39:32;14.00;;;5.10;;
74660;SDS011;63191;39.566;2.654;2022-12-24T00:41:58;16.50;;;5.20;;
74660;SDS011;63191;39.566;2.654;2022-12-24T00:44:23;15.70;;;5.30;;
74660;SDS011;63191;39.566;2.654;2022-12-24T00:46:51;16.00;;;5.50;;
74660;SDS011;63191;39.566;2.654;2022-12-24T00:49:17;14.70;;;4.70;;
74660;SDS011;63191;39.566;2.654;2022-12-24T00:51:43;16.90;;;5.00;;
74660;SDS011;63191;39.566;2.654;2022-12-24T00:54:15;14.70;;;5.70;;
74660;SDS011;63191;39.566;2.654;2022-12-24T00:56:40;15.40;;;5.10;;
74660;SDS011;63191;39.566;2.654;2022-12-24T00:59:06;13.30;;;4.80;;
74660;SDS011;63191;39.566;2.654;2022-12-24T01:01:32;13.40;;;4.80;;
74660;SDS011;63191;39.566;2.654;2022-12-24T01:04:01;14.10;;;4.50;;
74660;SDS011;63191;39.566;2.654;2022-12-24T01:06:45;11.50;;;4.70;;
74660;SDS011;63191;39.566;2.654;2022-12-24T01:09:11;12.60;;;4.00;;
74660;SDS011;63191;39.566;2.654;2022-12-24T01:11:37;14.90;;;5.30;;
74660;SDS011;63191;39.566;2.654;2022-12-24T01:14:03;13.70;;;5.00;;
74660;SDS011;63191;39.566;2.654;2022-12-24T01:16:29;12.00;;;4.40;;
74660;SDS011;63191;39.566;2.654;2022-12-24T01:18:55;15.00;;;5.20;;
74660;SDS011;63191;39.566;2.654;2022-12-24T01:21:21;15.40;;;4.70;;
74660;SDS011;63191;39.566;2.654;2022-12-24T01:23:47;14.80;;;5.00;;
74660;SDS011;63191;39.566;2.654;2022-12-24T01:26:13;11.60;;;4.70;;
74660;SDS011;63191;39.566;2.654;2022-12-24T01:28:39;14.10;;;4.90;;
74660;SDS011;63191;39.566;2.654;2022-12-24T01:31:13;16.50;;;5.30;;
74660;SDS011;63191;39.566;2.654;2022-12-24T01:33:41;11.60;;;4.10;;
74660;SDS011;63191;39.566;2.654;2022-12-24T01:36:08;13.10;;;4.80;;
74660;SDS011;63191;39.566;2.654;2022-12-24T01:38:35;11.50;;;4.30;;
74660;SDS011;63191;39.566;2.654;2022-12-24T01:41:01;13.40;;;4.60;;
74660;SDS011;63191;39.566;2.654;2022-12-24T01:43:46;12.20;;;4.60;;
74660;SDS011;63191;39.566;2.654;2022-12-24T01:46:23;11.30;;;4.00;;
74660;SDS011;63191;39.566;2.654;2022-12-24T01:49:00;11.90;;;4.30;;
74660;SDS011;63191;39.566;2.654;2022-12-24T01:51:34;12.30;;;4.40;;
74660;SDS011;63191;39.566;2.654;2022-12-24T01:56:40;12.20;;;3.90;;
74660;SDS011;63191;39.566;2.654;2022-12-24T01:59:11;11.70;;;4.20;;
74660;SDS011;63191;39.566;2.654;2022-12-24T02:01:39;11.10;;;4.30;;
74660;SDS011;63191;39.566;2.654;2022-12-24T02:04:31;9.90;;;3.60;;
74660;SDS011;63191;39.566;2.654;2022-12-24T02:07:00;12.50;;;4.50;;
74660;SDS011;63191;39.566;2.654;2022-12-24T02:09:28;11.50;;;4.30;;
74660;SDS011;63191;39.566;2.654;2022-12-24T02:11:58;12.20;;;3.50;;
74660;SDS011;63191;39.566;2.654;2022-12-24T02:14:26;10.20;;;3.60;;
74660;SDS011;63191;39.566;2.654;2022-12-24T02:17:16;10.50;;;3.30;;
74660;SDS011;63191;39.566;2.654;2022-12-24T02:34:37;9.10;;;2.60;;
74660;SDS011;63191;39.566;2.654;2022-12-24T02:39:50;10.50;;;3.10;;
74660;SDS011;63191;39.566;2.654;2022-12-24T02:42:25;8.80;;;3.20;;
74660;SDS011;63191;39.566;2.654;2022-12-24T02:44:58;8.20;;;2.80;;
74660;SDS011;63191;39.566;2.654;2022-12-24T02:47:28;12.20;;;3.60;;
74660;SDS011;63191;39.566;2.654;2022-12-24T02:49:54;9.90;;;3.10;;
74660;SDS011;63191;39.566;2.654;2022-12-24T02:55:01;10.50;;;3.30;;
74660;SDS011;63191;39.566;2.654;2022-12-24T03:03:35;9.40;;;3.60;;
74660;SDS011;63191;39.566;2.654;2022-12-24T03:09:25;10.30;;;3.40;;
74660;SDS011;63191;39.566;2.654;2022-12-24T03:12:02;10.30;;;3.10;;
74660;SDS011;63191;39.566;2.654;2022-12-24T03:14:35;11.00;;;3.10;;
74660;SDS011;63191;39.566;2.654;2022-12-24T03:17:04;13.20;;;3.10;;
74660;SDS011;63191;39.566;2.654;2022-12-24T03:19:30;10.10;;;3.10;;
74660;SDS011;63191;39.566;2.654;2022-12-24T03:21:58;10.70;;;3.40;;
74660;SDS011;63191;39.566;2.654;2022-12-24T03:24:25;10.30;;;3.20;;
74660;SDS011;63191;39.566;2.654;2022-12-24T03:26:52;8.90;;;2.50;;
74660;SDS011;63191;39.566;2.654;2022-12-24T03:29:25;8.20;;;2.60;;
74660;SDS011;63191;39.566;2.654;2022-12-24T03:31:52;9.10;;;3.00;;
74660;SDS011;63191;39.566;2.654;2022-12-24T03:34:24;9.00;;;2.50;;
74660;SDS011;63191;39.566;2.654;2022-12-24T03:36:50;9.70;;;2.30;;
74660;SDS011;63191;39.566;2.654;2022-12-24T03:39:16;9.60;;;2.70;;
74660;SDS011;63191;39.566;2.654;2022-12-24T03:41:42;7.90;;;2.30;;
74660;SDS011;63191;39.566;2.654;2022-12-24T03:44:07;8.40;;;2.30;;
74660;SDS011;63191;39.566;2.654;2022-12-24T03:46:33;8.00;;;2.60;;
74660;SDS011;63191;39.566;2.654;2022-12-24T03:48:59;6.70;;;2.40;;
74660;SDS011;63191;39.566;2.654;2022-12-24T03:51:27;9.50;;;3.00;;
74660;SDS011;63191;39.566;2.654;2022-12-24T03:53:54;8.80;;;3.10;;
74660;SDS011;63191;39.566;2.654;2022-12-24T03:56:21;10.90;;;3.20;;
74660;SDS011;63191;39.566;2.654;2022-12-24T03:58:49;10.70;;;2.90;;
74660;SDS011;63191;39.566;2.654;2022-12-24T04:01:16;9.40;;;2.60;;
74660;SDS011;63191;39.566;2.654;2022-12-24T04:03:43;9.60;;;3.60;;
74660;SDS011;63191;39.566;2.654;2022-12-24T04:06:11;11.90;;;2.90;;
74660;SDS011;63191;39.566;2.654;2022-12-24T04:08:42;10.00;;;2.60;;
74660;SDS011;63191;39.566;2.654;2022-12-24T04:11:14;8.80;;;3.00;;
74660;SDS011;63191;39.566;2.654;2022-12-24T04:13:41;8.70;;;2.60;;
74660;SDS011;63191;39.566;2.654;2022-12-24T04:16:09;8.20;;;2.80;;
74660;SDS011;63191;39.566;2.654;2022-12-24T04:18:37;8.60;;;2.30;;
74660;SDS011;63191;39.566;2.654;2022-12-24T04:21:04;9.70;;;3.10;;
74660;SDS011;63191;39.566;2.654;2022-12-24T04:23:31;10.90;;;2.90;;
74660;SDS011;63191;39.566;2.654;2022-12-24T04:25:59;10.20;;;2.90;;
74660;SDS011;63191;39.566;2.654;2022-12-24T04:28:28;10.00;;;2.90;;
74660;SDS011;63191;39.566;2.654;2022-12-24T04:31:02;9.80;;;3.10;;
74660;SDS011;63191;39.566;2.654;2022-12-24T04:33:30;12.90;;;3.60;;
74660;SDS011;63191;39.566;2.654;2022-12-24T04:35:57;8.30;;;2.70;;
74660;SDS011;63191;39.566;2.654;2022-12-24T04:38:24;11.20;;;2.70;;
74660;SDS011;63191;39.566;2.654;2022-12-24T04:41:03;10.20;;;2.80;;
74660;SDS011;63191;39.566;2.654;2022-12-24T04:43:31;7.40;;;2.90;;
74660;SDS011;63191;39.566;2.654;2022-12-24T04:46:11;11.60;;;3.10;;
74660;SDS011;63191;39.566;2.654;2022-12-24T04:48:46;11.10;;;3.30;;
74660;SDS011;63191;39.566;2.654;2022-12-24T04:51:14;7.80;;;3.20;;
74660;SDS011;63191;39.566;2.654;2022-12-24T04:53:41;9.10;;;3.10;;
74660;SDS011;63191;39.566;2.654;2022-12-24T04:56:12;8.80;;;3.50;;
74660;SDS011;63191;39.566;2.654;2022-12-24T04:58:45;8.20;;;2.80;;
74660;SDS011;63191;39.566;2.654;2022-12-24T05:01:13;11.00;;;2.70;;
74660;SDS011;63191;39.566;2.654;2022-12-24T05:03:42;11.30;;;2.90;;
74660;SDS011;63191;39.566;2.654;2022-12-24T05:06:13;8.70;;;2.40;;
74660;SDS011;63191;39.566;2.654;2022-12-24T05:08:41;9.30;;;3.00;;
74660;SDS011;63191;39.566;2.654;2022-12-24T05:11:08;7.10;;;2.70;;
74660;SDS011;63191;39.566;2.654;2022-12-24T05:13:34;11.10;;;2.80;;
74660;SDS011;63191;39.566;2.654;2022-12-24T05:16:00;9.80;;;2.90;;
74660;SDS011;63191;39.566;2.654;2022-12-24T05:18:26;9.70;;;2.80;;
74660;SDS011;63191;39.566;2.654;2022-12-24T05:20:52;7.80;;;2.70;;
74660;SDS011;63191;39.566;2.654;2022-12-24T05:23:21;10.60;;;2.60;;
74660;SDS011;63191;39.566;2.654;2022-12-24T05:26:15;10.90;;;2.70;;
74660;SDS011;63191;39.566;2.654;2022-12-24T05:28:50;9.30;;;2.80;;
74660;SDS011;63191;39.566;2.654;2022-12-24T05:31:18;10.40;;;2.80;;
74660;SDS011;63191;39.566;2.654;2022-12-24T05:33:44;9.10;;;2.80;;
74660;SDS011;63191;39.566;2.654;2022-12-24T05:36:11;9.40;;;3.20;;
74660;SDS011;63191;39.566;2.654;2022-12-24T05:38:37;9.00;;;2.70;;
74660;SDS011;63191;39.566;2.654;2022-12-24T05:41:04;9.10;;;2.50;;
74660;SDS011;63191;39.566;2.654;2022-12-24T05:43:30;9.70;;;2.80;;
74660;SDS011;63191;39.566;2.654;2022-12-24T05:46:00;10.70;;;2.80;;
74660;SDS011;63191;39.566;2.654;2022-12-24T05:48:28;9.90;;;3.00;;
74660;SDS011;63191;39.566;2.654;2022-12-24T05:50:55;9.60;;;2.90;;
74660;SDS011;63191;39.566;2.654;2022-12-24T05:53:23;11.00;;;3.30;;
74660;SDS011;63191;39.566;2.654;2022-12-24T05:55:50;8.70;;;2.70;;
74660;SDS011;63191;39.566;2.654;2022-12-24T05:58:16;8.60;;;2.80;;
74660;SDS011;63191;39.566;2.654;2022-12-24T06:00:41;10.40;;;2.90;;
74660;SDS011;63191;39.566;2.654;2022-12-24T06:03:07;7.60;;;2.50;;
74660;SDS011;63191;39.566;2.654;2022-12-24T06:05:34;9.80;;;2.70;;
74660;SDS011;63191;39.566;2.654;2022-12-24T06:08:01;11.60;;;3.20;;
74660;SDS011;63191;39.566;2.654;2022-12-24T06:10:27;8.80;;;2.70;;
74660;SDS011;63191;39.566;2.654;2022-12-24T06:12:54;11.80;;;3.20;;
74660;SDS011;63191;39.566;2.654;2022-12-24T06:15:20;8.70;;;3.00;;
74660;SDS011;63191;39.566;2.654;2022-12-24T06:17:45;9.50;;;2.80;;
74660;SDS011;63191;39.566;2.654;2022-12-24T06:20:11;10.10;;;3.00;;
74660;SDS011;63191;39.566;2.654;2022-12-24T06:22:37;9.90;;;2.90;;
74660;SDS011;63191;39.566;2.654;2022-12-24T06:25:04;11.10;;;3.30;;
74660;SDS011;63191;39.566;2.654;2022-12-24T06:27:30;14.80;;;3.70;;
74660;SDS011;63191;39.566;2.654;2022-12-24T06:29:55;9.80;;;3.20;;
74660;SDS011;63191;39.566;2.654;2022-12-24T06:32:21;12.20;;;3.30;;
74660;SDS011;63191;39.566;2.654;2022-12-24T06:34:47;12.40;;;3.40;;
74660;SDS011;63191;39.566;2.654;2022-12-24T06:37:13;12.70;;;3.60;;
74660;SDS011;63191;39.566;2.654;2022-12-24T06:39:45;11.70;;;3.40;;
74660;SDS011;63191;39.566;2.654;2022-12-24T06:42:12;19.10;;;3.60;;
74660;SDS011;63191;39.566;2.654;2022-12-24T06:44:38;16.70;;;3.80;;
74660;SDS011;63191;39.566;2.654;2022-12-24T06:47:04;12.60;;;3.40;;
74660;SDS011;63191;39.566;2.654;2022-12-24T06:49:31;13.50;;;3.10;;
74660;SDS011;63191;39.566;2.654;2022-12-24T06:51:57;14.00;;;3.00;;
74660;SDS011;63191;39.566;2.654;2022-12-24T06:54:23;9.60;;;2.80;;
74660;SDS011;63191;39.566;2.654;2022-12-24T06:56:48;13.50;;;3.60;;
74660;SDS011;63191;39.566;2.654;2022-12-24T06:59:14;11.80;;;3.40;;
74660;SDS011;63191;39.566;2.654;2022-12-24T07:01:40;11.50;;;3.80;;
74660;SDS011;63191;39.566;2.654;2022-12-24T07:04:06;13.30;;;3.60;;
74660;SDS011;63191;39.566;2.654;2022-12-24T07:06:31;9.30;;;2.90;;
74660;SDS011;63191;39.566;2.654;2022-12-24T07:08:57;11.70;;;3.60;;
74660;SDS011;63191;39.566;2.654;2022-12-24T07:11:24;10.80;;;3.30;;
74660;SDS011;63191;39.566;2.654;2022-12-24T07:13:50;11.40;;;3.20;;
74660;SDS011;63191;39.566;2.654;2022-12-24T07:16:16;12.80;;;3.50;;
74660;SDS011;63191;39.566;2.654;2022-12-24T07:18:42;14.50;;;3.70;;
74660;SDS011;63191;39.566;2.654;2022-12-24T07:21:09;11.10;;;3.10;;
74660;SDS011;63191;39.566;2.654;2022-12-24T07:23:35;10.50;;;3.40;;
74660;SDS011;63191;39.566;2.654;2022-12-24T07:26:03;12.00;;;3.70;;
74660;SDS011;63191;39.566;2.654;2022-12-24T07:28:30;13.40;;;3.30;;
74660;SDS011;63191;39.566;2.654;2022-12-24T07:30:58;9.00;;;3.20;;
74660;SDS011;63191;39.566;2.654;2022-12-24T07:33:24;15.00;;;3.50;;
74660;SDS011;63191;39.566;2.654;2022-12-24T07:36:01;11.90;;;3.70;;
74660;SDS011;63191;39.566;2.654;2022-12-24T07:38:29;11.70;;;3.50;;
74660;SDS011;63191;39.566;2.654;2022-12-24T07:40:56;8.70;;;3.20;;
74660;SDS011;63191;39.566;2.654;2022-12-24T07:43:24;12.70;;;3.70;;
74660;SDS011;63191;39.566;2.654;2022-12-24T07:45:56;9.50;;;3.20;;
74660;SDS011;63191;39.566;2.654;2022-12-24T07:48:24;14.90;;;3.20;;
74660;SDS011;63191;39.566;2.654;2022-12-24T07:50:52;9.10;;;3.20;;
74660;SDS011;63191;39.566;2.654;2022-12-24T07:53:18;11.10;;;3.40;;
74660;SDS011;63191;39.566;2.654;2022-12-24T07:55:44;10.60;;;3.40;;
74660;SDS011;63191;39.566;2.654;2022-12-24T07:58:10;10.00;;;3.20;;
74660;SDS011;63191;39.566;2.654;2022-12-24T08:00:36;10.90;;;3.60;;
74660;SDS011;63191;39.566;2.654;2022-12-24T08:03:02;11.00;;;3.70;;
74660;SDS011;63191;39.566;2.654;2022-12-24T08:05:33;8.80;;;3.60;;
74660;SDS011;63191;39.566;2.654;2022-12-24T08:07:59;12.60;;;4.30;;
74660;SDS011;63191;39.566;2.654;2022-12-24T08:10:25;11.00;;;3.70;;
74660;SDS011;63191;39.566;2.654;2022-12-24T08:12:51;10.20;;;4.10;;
74660;SDS011;63191;39.566;2.654;2022-12-24T08:15:17;14.80;;;5.40;;
74660;SDS011;63191;39.566;2.654;2022-12-24T08:17:43;13.00;;;6.10;;
74660;SDS011;63191;39.566;2.654;2022-12-24T08:20:10;11.60;;;5.30;;
74660;SDS011;63191;39.566;2.654;2022-12-24T08:22:41;11.70;;;5.70;;
74660;SDS011;63191;39.566;2.654;2022-12-24T08:25:08;14.70;;;5.80;;
74660;SDS011;63191;39.566;2.654;2022-12-24T08:27:35;11.30;;;5.70;;
74660;SDS011;63191;39.566;2.654;2022-12-24T08:30:02;11.30;;;4.90;;
74660;SDS011;63191;39.566;2.654;2022-12-24T08:32:28;14.50;;;6.00;;
74660;SDS011;63191;39.566;2.654;2022-12-24T08:34:54;12.70;;;6.00;;
74660;SDS011;63191;39.566;2.654;2022-12-24T08:37:20;12.10;;;5.50;;
74660;SDS011;63191;39.566;2.654;2022-12-24T08:39:46;9.40;;;4.60;;
74660;SDS011;63191;39.566;2.654;2022-12-24T08:42:13;8.60;;;3.60;;
74660;SDS011;63191;39.566;2.654;2022-12-24T08:44:38;13.70;;;4.80;;
74660;SDS011;63191;39.566;2.654;2022-12-24T08:47:04;11.60;;;5.20;;
74660;SDS011;63191;39.566;2.654;2022-12-24T08:49:30;12.30;;;5.70;;
74660;SDS011;63191;39.566;2.654;2022-12-24T08:51:56;14.00;;;5.70;;
74660;SDS011;63191;39.566;2.654;2022-12-24T08:54:22;13.60;;;5.70;;
74660;SDS011;63191;39.566;2.654;2022-12-24T08:56:49;12.70;;;5.30;;
74660;SDS011;63191;39.566;2.654;2022-12-24T08:59:15;8.30;;;4.00;;
74660;SDS011;63191;39.566;2.654;2022-12-24T09:01:41;8.80;;;3.80;;
74660;SDS011;63191;39.566;2.654;2022-12-24T09:04:08;11.80;;;5.30;;
74660;SDS011;63191;39.566;2.654;2022-12-24T09:06:34;9.60;;;3.70;;
74660;SDS011;63191;39.566;2.654;2022-12-24T09:09:02;9.20;;;3.00;;
74660;SDS011;63191;39.566;2.654;2022-12-24T09:11:28;9.20;;;3.60;;
74660;SDS011;63191;39.566;2.654;2022-12-24T09:13:54;12.30;;;4.80;;
74660;SDS011;63191;39.566;2.654;2022-12-24T09:16:21;10.40;;;4.70;;
74660;SDS011;63191;39.566;2.654;2022-12-24T09:18:47;7.90;;;3.80;;
74660;SDS011;63191;39.566;2.654;2022-12-24T09:21:14;12.90;;;5.10;;
74660;SDS011;63191;39.566;2.654;2022-12-24T09:23:45;8.80;;;3.90;;
74660;SDS011;63191;39.566;2.654;2022-12-24T09:26:19;11.40;;;4.70;;
74660;SDS011;63191;39.566;2.654;2022-12-24T09:28:49;10.20;;;5.20;;
74660;SDS011;63191;39.566;2.654;2022-12-24T09:31:18;10.10;;;4.60;;
74660;SDS011;63191;39.566;2.654;2022-12-24T09:33:46;9.20;;;3.90;;
74660;SDS011;63191;39.566;2.654;2022-12-24T09:36:13;9.50;;;4.40;;
74660;SDS011;63191;39.566;2.654;2022-12-24T09:38:39;10.40;;;4.50;;
74660;SDS011;63191;39.566;2.654;2022-12-24T09:41:59;11.80;;;5.80;;
74660;SDS011;63191;39.566;2.654;2022-12-24T09:44:34;11.80;;;5.00;;
74660;SDS011;63191;39.566;2.654;2022-12-24T09:47:07;10.00;;;5.70;;
74660;SDS011;63191;39.566;2.654;2022-12-24T09:49:42;11.90;;;5.10;;
74660;SDS011;63191;39.566;2.654;2022-12-24T09:52:14;8.60;;;4.90;;
74660;SDS011;63191;39.566;2.654;2022-12-24T09:55:02;9.60;;;5.30;;
74660;SDS011;63191;39.566;2.654;2022-12-24T09:57:39;9.90;;;4.60;;
74660;SDS011;63191;39.566;2.654;2022-12-24T10:00:22;9.20;;;4.30;;
74660;SDS011;63191;39.566;2.654;2022-12-24T10:02:51;12.10;;;5.40;;
74660;SDS011;63191;39.566;2.654;2022-12-24T10:05:39;11.70;;;6.00;;
74660;SDS011;63191;39.566;2.654;2022-12-24T10:11:30;9.80;;;5.10;;
74660;SDS011;63191;39.566;2.654;2022-12-24T10:17:52;9.50;;;5.10;;
74660;SDS011;63191;39.566;2.654;2022-12-24T10:23:54;8.90;;;4.60;;
74660;SDS011;63191;39.566;2.654;2022-12-24T10:26:42;8.80;;;4.60;;
74660;SDS011;63191;39.566;2.654;2022-12-24T10:29:14;10.00;;;4.00;;
74660;SDS011;63191;39.566;2.654;2022-12-24T10:34:38;10.80;;;4.80;;
74660;SDS011;63191;39.566;2.654;2022-12-24T10:37:16;8.90;;;3.60;;
74660;SDS011;63191;39.566;2.654;2022-12-24T10:39:46;9.00;;;3.70;;
74660;SDS011;63191;39.566;2.654;2022-12-24T10:42:14;9.50;;;3.60;;
74660;SDS011;63191;39.566;2.654;2022-12-24T10:44:40;10.00;;;3.70;;
74660;SDS011;63191;39.566;2.654;2022-12-24T10:47:08;9.70;;;3.40;;
74660;SDS011;63191;39.566;2.654;2022-12-24T10:49:44;9.80;;;4.00;;
74660;SDS011;63191;39.566;2.654;2022-12-24T10:52:18;8.90;;;3.50;;
74660;SDS011;63191;39.566;2.654;2022-12-24T10:57:36;9.70;;;3.90;;
74660;SDS011;63191;39.566;2.654;2022-12-24T11:00:17;10.10;;;4.10;;
74660;SDS011;63191;39.566;2.654;2022-12-24T11:02:47;10.90;;;4.50;;
74660;SDS011;63191;39.566;2.654;2022-12-24T11:05:32;13.00;;;5.40;;
74660;SDS011;63191;39.566;2.654;2022-12-24T11:08:15;10.00;;;4.40;;
74660;SDS011;63191;39.566;2.654;2022-12-24T11:10:54;11.50;;;4.40;;
74660;SDS011;63191;39.566;2.654;2022-12-24T11:13:38;14.30;;;4.80;;
74660;SDS011;63191;39.566;2.654;2022-12-24T11:16:29;14.00;;;5.50;;
74660;SDS011;63191;39.566;2.654;2022-12-24T11:18:59;12.20;;;4.80;;
74660;SDS011;63191;39.566;2.654;2022-12-24T11:24:01;13.00;;;4.90;;
74660;SDS011;63191;39.566;2.654;2022-12-24T11:26:34;11.40;;;4.70;;
74660;SDS011;63191;39.566;2.654;2022-12-24T11:29:21;12.10;;;4.60;;
74660;SDS011;63191;39.566;2.654;2022-12-24T11:31:52;11.90;;;4.60;;
74660;SDS011;63191;39.566;2.654;2022-12-24T11:34:42;10.80;;;4.10;;
74660;SDS011;63191;39.566;2.654;2022-12-24T11:39:40;8.90;;;4.00;;
74660;SDS011;63191;39.566;2.654;2022-12-24T11:42:31;11.00;;;4.00;;
74660;SDS011;63191;39.566;2.654;2022-12-24T11:45:02;10.10;;;4.10;;
74660;SDS011;63191;39.566;2.654;2022-12-24T11:47:38;11.10;;;4.40;;
74660;SDS011;63191;39.566;2.654;2022-12-24T11:50:30;13.30;;;4.80;;
74660;SDS011;63191;39.566;2.654;2022-12-24T11:55:58;11.90;;;4.30;;
74660;SDS011;63191;39.566;2.654;2022-12-24T12:01:34;10.80;;;3.90;;
74660;SDS011;63191;39.566;2.654;2022-12-24T12:04:13;8.50;;;3.80;;
74660;SDS011;63191;39.566;2.654;2022-12-24T12:06:53;10.20;;;3.60;;
74660;SDS011;63191;39.566;2.654;2022-12-24T12:09:44;14.40;;;4.30;;
74660;SDS011;63191;39.566;2.654;2022-12-24T12:12:16;12.50;;;4.00;;
74660;SDS011;63191;39.566;2.654;2022-12-24T12:15:05;11.60;;;4.00;;
74660;SDS011;63191;39.566;2.654;2022-12-24T12:22:59;8.90;;;3.70;;
74660;SDS011;63191;39.566;2.654;2022-12-24T12:25:36;12.90;;;4.40;;
74660;SDS011;63191;39.566;2.654;2022-12-24T12:28:21;11.90;;;4.10;;
74660;SDS011;63191;39.566;2.654;2022-12-24T12:31:15;11.30;;;4.40;;
74660;SDS011;63191;39.566;2.654;2022-12-24T12:36:50;11.60;;;4.20;;
74660;SDS011;63191;39.566;2.654;2022-12-24T12:39:22;8.50;;;3.60;;
74660;SDS011;63191;39.566;2.654;2022-12-24T12:55:58;10.40;;;3.50;;
74660;SDS011;63191;39.566;2.654;2022-12-24T12:58:45;8.50;;;3.20;;
74660;SDS011;63191;39.566;2.654;2022-12-24T13:01:15;11.30;;;3.90;;
74660;SDS011;63191;39.566;2.654;2022-12-24T13:04:15;11.70;;;3.40;;
74660;SDS011;63191;39.566;2.654;2022-12-24T13:07:43;12.80;;;3.40;;
74660;SDS011;63191;39.566;2.654;2022-12-24T13:13:42;11.80;;;2.80;;
74660;SDS011;63191;39.566;2.654;2022-12-24T13:22:34;8.80;;;3.00;;
74660;SDS011;63191;39.566;2.654;2022-12-24T13:25:01;9.70;;;3.10;;
74660;SDS011;63191;39.566;2.654;2022-12-24T13:27:32;11.70;;;3.50;;
74660;SDS011;63191;39.566;2.654;2022-12-24T13:32:45;11.80;;;3.50;;
74660;SDS011;63191;39.566;2.654;2022-12-24T13:37:44;9.50;;;3.20;;
74660;SDS011;63191;39.566;2.654;2022-12-24T13:40:13;7.80;;;2.60;;
74660;SDS011;63191;39.566;2.654;2022-12-24T13:47:56;12.10;;;2.60;;
74660;SDS011;63191;39.566;2.654;2022-12-24T13:50:49;8.00;;;2.70;;
74660;SDS011;63191;39.566;2.654;2022-12-24T13:53:41;11.10;;;3.10;;
74660;SDS011;63191;39.566;2.654;2022-12-24T13:58:41;10.70;;;2.70;;
74660;SDS011;63191;39.566;2.654;2022-12-24T14:01:12;8.30;;;2.70;;
74660;SDS011;63191;39.566;2.654;2022-12-24T14:03:47;9.80;;;2.30;;
74660;SDS011;63191;39.566;2.654;2022-12-24T14:06:26;12.80;;;3.20;;
74660;SDS011;63191;39.566;2.654;2022-12-24T14:09:03;10.80;;;3.00;;
74660;SDS011;63191;39.566;2.654;2022-12-24T14:14:40;10.50;;;2.80;;
74660;SDS011;63191;39.566;2.654;2022-12-24T14:17:26;8.70;;;2.40;;
74660;SDS011;63191;39.566;2.654;2022-12-24T14:19:58;12.60;;;3.20;;
74660;SDS011;63191;39.566;2.654;2022-12-24T14:22:39;13.60;;;3.10;;
74660;SDS011;63191;39.566;2.654;2022-12-24T14:25:16;14.50;;;3.10;;
74660;SDS011;63191;39.566;2.654;2022-12-24T14:27:48;10.60;;;2.90;;
74660;SDS011;63191;39.566;2.654;2022-12-24T14:30:23;8.10;;;2.80;;
74660;SDS011;63191;39.566;2.654;2022-12-24T14:32:51;12.30;;;3.00;;
74660;SDS011;63191;39.566;2.654;2022-12-24T14:35:23;14.80;;;3.70;;
74660;SDS011;63191;39.566;2.654;2022-12-24T14:37:57;8.30;;;2.50;;
74660;SDS011;63191;39.566;2.654;2022-12-24T14:40:27;17.50;;;4.70;;
74660;SDS011;63191;39.566;2.654;2022-12-24T14:43:24;10.70;;;2.80;;
74660;SDS011;63191;39.566;2.654;2022-12-24T14:46:33;13.90;;;4.20;;
74660;SDS011;63191;39.566;2.654;2022-12-24T14:54:39;10.00;;;3.30;;
74660;SDS011;63191;39.566;2.654;2022-12-24T14:59:59;14.20;;;3.80;;
74660;SDS011;63191;39.566;2.654;2022-12-24T15:02:37;11.00;;;3.00;;
74660;SDS011;63191;39.566;2.654;2022-12-24T15:05:17;16.40;;;4.20;;
74660;SDS011;63191;39.566;2.654;2022-12-24T15:08:02;14.50;;;3.40;;
74660;SDS011;63191;39.566;2.654;2022-12-24T15:10:33;12.90;;;3.40;;
74660;SDS011;63191;39.566;2.654;2022-12-24T15:13:04;9.10;;;3.60;;
74660;SDS011;63191;39.566;2.654;2022-12-24T15:15:31;16.00;;;4.00;;
74660;SDS011;63191;39.566;2.654;2022-12-24T15:18:02;12.60;;;3.20;;
74660;SDS011;63191;39.566;2.654;2022-12-24T15:20:29;13.00;;;3.50;;
74660;SDS011;63191;39.566;2.654;2022-12-24T15:22:58;12.30;;;3.50;;
74660;SDS011;63191;39.566;2.654;2022-12-24T15:25:25;10.70;;;3.10;;
74660;SDS011;63191;39.566;2.654;2022-12-24T15:27:57;10.80;;;3.20;;
74660;SDS011;63191;39.566;2.654;2022-12-24T15:30:27;14.10;;;3.30;;
74660;SDS011;63191;39.566;2.654;2022-12-24T15:32:56;13.30;;;3.60;;
74660;SDS011;63191;39.566;2.654;2022-12-24T15:38:21;15.10;;;3.80;;
74660;SDS011;63191;39.566;2.654;2022-12-24T15:43:42;14.00;;;3.40;;
74660;SDS011;63191;39.566;2.654;2022-12-24T15:46:23;13.80;;;3.70;;
74660;SDS011;63191;39.566;2.654;2022-12-24T15:48:51;14.30;;;3.90;;
74660;SDS011;63191;39.566;2.654;2022-12-24T15:51:26;12.20;;;3.80;;
74660;SDS011;63191;39.566;2.654;2022-12-24T15:54:20;10.90;;;3.40;;
74660;SDS011;63191;39.566;2.654;2022-12-24T15:56:45;14.30;;;3.90;;
74660;SDS011;63191;39.566;2.654;2022-12-24T16:01:46;14.00;;;4.20;;
74660;SDS011;63191;39.566;2.654;2022-12-24T16:04:22;14.50;;;4.10;;
74660;SDS011;63191;39.566;2.654;2022-12-24T16:06:54;11.30;;;3.50;;
74660;SDS011;63191;39.566;2.654;2022-12-24T16:12:13;13.10;;;3.30;;
74660;SDS011;63191;39.566;2.654;2022-12-24T16:14:51;14.60;;;3.80;;
74660;SDS011;63191;39.566;2.654;2022-12-24T16:17:27;13.10;;;4.60;;
74660;SDS011;63191;39.566;2.654;2022-12-24T16:19:57;14.60;;;3.90;;
74660;SDS011;63191;39.566;2.654;2022-12-24T16:22:26;12.50;;;3.60;;
74660;SDS011;63191;39.566;2.654;2022-12-24T16:27:43;13.40;;;4.30;;
74660;SDS011;63191;39.566;2.654;2022-12-24T16:30:10;14.10;;;3.60;;
74660;SDS011;63191;39.566;2.654;2022-12-24T16:32:38;14.30;;;4.00;;
74660;SDS011;63191;39.566;2.654;2022-12-24T16:35:22;13.40;;;4.20;;
74660;SDS011;63191;39.566;2.654;2022-12-24T16:37:50;16.30;;;3.80;;
74660;SDS011;63191;39.566;2.654;2022-12-24T16:40:18;14.60;;;5.10;;
74660;SDS011;63191;39.566;2.654;2022-12-24T16:42:44;12.70;;;3.70;;
74660;SDS011;63191;39.566;2.654;2022-12-24T16:45:29;11.30;;;3.50;;
74660;SDS011;63191;39.566;2.654;2022-12-24T16:47:56;9.30;;;3.70;;
74660;SDS011;63191;39.566;2.654;2022-12-24T16:50:23;17.00;;;4.30;;
74660;SDS011;63191;39.566;2.654;2022-12-24T16:52:49;14.50;;;4.20;;
74660;SDS011;63191;39.566;2.654;2022-12-24T16:55:15;8.50;;;2.70;;
74660;SDS011;63191;39.566;2.654;2022-12-24T16:57:41;16.60;;;4.00;;
74660;SDS011;63191;39.566;2.654;2022-12-24T17:02:33;17.20;;;4.90;;
74660;SDS011;63191;39.566;2.654;2022-12-24T17:04:58;11.80;;;3.70;;
74660;SDS011;63191;39.566;2.654;2022-12-24T17:07:24;15.00;;;4.30;;
74660;SDS011;63191;39.566;2.654;2022-12-24T17:09:50;13.90;;;4.40;;
74660;SDS011;63191;39.566;2.654;2022-12-24T17:12:21;15.20;;;3.80;;